Time;durP1;ratioP1;P1;durP2;ratioP2;P2;SDS_P1;SDS_P2;PMS_P1;PMS_P2;Temp;Humidity;BMP_temperature;BMP_pressure;BME280_temperature;BME280_humidity;BME280_pressure;Samples;Min_cycle;Max_cycle;Signal;HPM_P1;HPM_P2
2020/12/01 00:06:22;;;;;;;40.38;20.92;;;;;;;-0.12;100.00;100956.80;10651719;82;21017;-83
2020/12/01 00:21:28;;;;;;;46.65;21.45;;;;;;;-0.22;100.00;100938.65;10688623;80;21103;-82
2020/12/01 00:36:32;;;;;;;43.40;21.95;;;;;;;-0.26;100.00;100940.48;10791613;80;21558;-83
2020/12/01 00:51:37;;;;;;;51.50;23.65;;;;;;;-0.27;100.00;100937.49;10802216;80;21019;-85
2020/12/01 01:06:46;;;;;;;59.83;27.02;;;;;;;-0.11;100.00;100930.09;10799221;80;21167;-82
2020/12/01 01:21:51;;;;;;;57.83;25.65;;;;;;;-0.07;100.00;100912.78;10731518;80;21143;-81
2020/12/01 01:36:56;;;;;;;63.08;27.25;;;;;;;0.08;100.00;100916.57;10553921;82;21175;-83
2020/12/01 01:52:02;;;;;;;50.58;24.32;;;;;;;0.14;100.00;100897.84;10527843;82;21053;-83
2020/12/01 02:07:07;;;;;;;52.43;22.73;;;;;;;0.01;100.00;100886.27;10556776;82;21092;-82
2020/12/01 02:22:17;;;;;;;46.15;20.12;;;;;;;0.13;100.00;100883.28;10553789;82;21108;-78
2020/12/01 02:37:26;;;;;;;47.17;20.92;;;;;;;0.27;100.00;100892.28;10574191;82;21037;-79
2020/12/01 02:52:30;;;;;;;43.28;21.00;;;;;;;0.18;100.00;100879.23;10588764;82;21095;-79
2020/12/01 03:07:35;;;;;;;44.58;20.37;;;;;;;0.21;100.00;100883.45;10552888;82;21059;-80
2020/12/01 03:22:39;;;;;;;46.70;21.60;;;;;;;0.07;100.00;100883.95;10384675;84;21474;-79
2020/12/01 03:37:43;;;;;;;41.42;19.65;;;;;;;-0.07;100.00;100874.92;10759421;81;21591;-81
2020/12/01 03:52:48;;;;;;;41.85;19.15;;;;;;;0.09;100.00;100857.20;10784012;81;21526;-81
2020/12/01 04:07:53;;;;;;;45.73;20.02;;;;;;;0.09;100.00;100857.20;10782507;81;21098;-78
2020/12/01 04:22:57;;;;;;;44.65;20.50;;;;;;;0.16;100.00;100862.98;10740554;81;21017;-79
2020/12/01 04:38:06;;;;;;;44.18;19.27;;;;;;;0.14;100.00;100857.85;10625496;82;21651;-83
2020/12/01 04:53:28;;;;;;;;;;;;;;;0.08;100.00;100846.48;10636908;82;21100;-83
2020/12/01 05:08:55;;;;;;;41.10;19.12;;;;;;;-0.29;100.00;100844.31;10628350;82;20252;-84
2020/12/01 05:24:00;;;;;;;43.23;19.52;;;;;;;-0.56;100.00;100851.63;10663289;81;21132;-80
2020/12/01 05:39:07;;;;;;;124.65;64.53;;;;;;;-0.73;100.00;100853.91;10690648;80;21088;-80
2020/12/01 05:54:20;;;;;;;67.12;30.97;;;;;;;-0.89;100.00;100860.00;10715591;81;21494;-79
2020/12/01 06:10:12;;;;;;;101.42;41.05;;;;;;;-1.05;100.00;100857.05;10737369;81;21060;-79
2020/12/01 06:26:34;;;;;;;66.55;26.52;;;;;;;-1.09;100.00;100870.92;10735026;80;21036;-80
2020/12/01 06:41:45;;;;;;;68.83;27.25;;;;;;;-1.01;100.00;100880.08;10031412;87;21082;-79
2020/12/01 06:56:59;;;;;;;116.70;46.30;;;;;;;-0.80;100.00;100882.06;10031504;87;21524;-79
2020/12/01 07:12:28;;;;;;;95.62;35.92;;;;;;;-0.76;100.00;100897.37;10459151;84;21468;-80
2020/12/01 07:27:41;;;;;;;104.83;39.10;;;;;;;-0.91;100.00;100935.19;10794794;81;21084;-80
2020/12/01 07:42:45;;;;;;;150.87;63.35;;;;;;;-0.95;100.00;100950.33;10752757;82;21024;-82
2020/12/01 07:57:59;;;;;;;112.70;42.27;;;;;;;-0.91;100.00;100957.94;10743520;82;21068;-79
2020/12/01 08:13:05;;;;;;;108.85;41.18;;;;;;;-0.81;100.00;100961.08;10728028;82;21049;-80
2020/12/01 08:28:26;;;;;;;118.20;45.40;;;;;;;-0.68;100.00;100979.14;10722508;82;21110;-80
2020/12/01 08:43:37;;;;;;;343.95;125.10;;;;;;;-0.44;100.00;100979.73;10674922;81;21137;-81
2020/12/01 08:58:47;;;;;;;186.15;65.95;;;;;;;-0.24;100.00;100986.41;10679141;82;21077;-82
2020/12/01 09:13:55;;;;;;;197.05;69.27;;;;;;;-0.12;100.00;100998.08;10710060;82;21108;-82
2020/12/01 09:28:59;;;;;;;202.00;70.10;;;;;;;0.05;100.00;101005.70;10655759;82;21056;-85
2020/12/01 09:44:10;;;;;;;145.32;57.60;;;;;;;0.18;100.00;100993.25;10672702;82;21041;-83
2020/12/01 09:59:39;;;;;;;237.10;71.03;;;;;;;0.75;100.00;100991.27;10673819;82;21072;-82
2020/12/01 10:45:45;;;;;;;101.30;43.55;;;;;;;1.73;100.00;101008.72;10395261;84;21072;-84
2020/12/01 11:00:53;;;;;;;113.17;46.02;;;;;;;1.71;100.00;101007.09;10413571;84;21529;-83
2020/12/01 11:15:57;;;;;;;78.07;36.63;;;;;;;1.71;100.00;101007.09;10658130;82;21077;-83
2020/12/01 11:31:01;;;;;;;94.75;40.95;;;;;;;2.59;100.00;101002.20;10720305;82;21516;-83
2020/12/01 11:46:08;;;;;;;95.03;43.10;;;;;;;3.79;100.00;101006.27;10770130;82;20989;-82
2020/12/01 12:01:15;;;;;;;80.07;43.38;;;;;;;3.86;100.00;101004.22;10732442;81;21063;-82
2020/12/01 12:16:22;;;;;;;94.95;43.85;;;;;;;4.28;100.00;101004.31;10797233;82;21043;-81
2020/12/01 12:31:28;;;;;;;133.97;53.03;;;;;;;3.42;100.00;101015.77;10786939;82;21099;-81
2020/12/01 12:46:32;;;;;;;139.37;58.63;;;;;;;2.99;100.00;101024.58;10749439;82;21069;-80
2020/12/01 13:01:48;;;;;;;102.45;44.13;;;;;;;2.55;100.00;101033.86;10724259;82;21085;-80
2020/12/01 13:16:54;;;;;;;155.87;62.62;;;;;;;2.31;100.00;101035.74;10714505;82;21029;-80
2020/12/01 13:31:58;;;;;;;173.97;70.67;;;;;;;2.19;100.00;101046.58;10814242;82;21000;-80
2020/12/01 13:47:02;;;;;;;297.02;102.45;;;;;;;1.87;100.00;101056.02;10823603;82;21135;-80
2020/12/01 14:02:07;;;;;;;256.50;80.53;;;;;;;1.82;100.00;101064.41;10853385;82;21052;-80
2020/12/01 14:17:12;;;;;;;206.90;78.97;;;;;;;1.73;100.00;101084.17;10796928;82;21010;-80
2020/12/01 14:32:17;;;;;;;232.30;74.47;;;;;;;1.61;100.00;101085.05;10707707;82;21040;-80
2020/12/01 14:47:49;;;;;;;234.35;73.70;;;;;;;1.56;100.00;101102.92;10752713;81;20989;-78
2020/12/01 15:03:59;;;;;;;592.20;184.65;;;;;;;1.53;100.00;101116.84;10767038;82;21404;-78
2020/12/01 15:19:04;;;;;;;524.77;189.37;;;;;;;1.49;100.00;101131.61;10746605;82;21049;-79
2020/12/01 15:34:11;;;;;;;369.82;141.12;;;;;;;1.48;100.00;101144.14;10694912;82;21084;-78
2020/12/01 15:49:16;;;;;;;294.75;98.55;;;;;;;1.35;100.00;101153.25;10642099;82;21123;-78
2020/12/01 16:05:14;;;;;;;302.30;101.15;;;;;;;1.18;100.00;101165.47;10669878;82;21564;-81
2020/12/01 16:20:24;;;;;;;170.05;64.05;;;;;;;1.15;100.00;101188.39;10673479;82;21048;-78
2020/12/01 16:35:30;;;;;;;233.80;83.12;;;;;;;1.10;100.00;101198.04;10735871;82;21079;-78
2020/12/01 16:50:45;;;;;;;152.90;59.07;;;;;;;1.08;100.00;101221.82;10731352;82;21488;-78
2020/12/01 17:06:05;;;;;;;128.93;51.65;;;;;;;1.12;100.00;101261.31;10750771;82;21123;-78
2020/12/01 17:21:14;;;;;;;182.45;73.42;;;;;;;1.09;100.00;101276.47;10726835;82;21069;-77
2020/12/01 17:36:23;;;;;;;192.57;66.28;;;;;;;1.09;100.00;101276.47;10664769;82;21072;-80
2020/12/01 17:51:36;;;;;;;148.82;61.85;;;;;;;1.16;100.00;101281.84;10708038;82;21044;-78
2020/12/01 18:06:40;;;;;;;89.55;38.70;;;;;;;1.25;100.00;101292.77;10816244;82;21095;-77
2020/12/01 18:21:52;;;;;;;105.35;45.92;;;;;;;1.14;100.00;101301.72;10762397;82;21009;-77
2020/12/01 18:36:58;;;;;;;105.47;41.15;;;;;;;1.02;100.00;101303.84;10398792;83;21128;-78
2020/12/01 18:52:03;;;;;;;;;;;;;;;1.00;100.00;101316.83;10587115;84;21084;-78
2020/12/01 19:07:09;;;;;;;69.50;29.30;;;;;;;0.79;100.00;101324.37;10745448;82;20162;-78
2020/12/01 19:22:14;;;;;;;109.27;48.53;;;;;;;0.86;100.00;101352.16;10753057;82;21068;-78
2020/12/01 19:37:18;;;;;;;58.75;27.70;;;;;;;0.83;100.00;101363.42;10700493;82;21536;-80
2020/12/01 19:52:23;;;;;;;56.28;26.62;;;;;;;0.79;100.00;101384.21;10692060;82;21032;-79
2020/12/01 20:07:27;;;;;;;48.10;24.45;;;;;;;0.74;100.00;101392.54;10699313;82;21081;-79
2020/12/01 20:22:32;;;;;;;55.00;27.62;;;;;;;0.68;100.00;101419.86;10631640;82;21120;-82
2020/12/01 20:39:04;;;;;;;57.20;25.88;;;;;;;0.51;100.00;101437.95;10678445;82;21142;-81
2020/12/01 20:54:08;;;;;;;52.90;25.45;;;;;;;0.33;100.00;101449.19;10376737;84;21209;-81
2020/12/01 21:09:16;;;;;;;98.92;36.33;;;;;;;0.05;100.00;101445.17;10372624;84;21532;-80
2020/12/01 21:24:20;;;;;;;76.92;30.88;;;;;;;-0.17;100.00;101452.18;10567855;82;21065;-78
2020/12/01 21:39:26;;;;;;;74.75;29.45;;;;;;;-0.41;100.00;101468.23;10731158;82;21132;-79
2020/12/01 21:54:44;;;;;;;156.20;60.30;;;;;;;-0.51;100.00;101463.74;10706514;82;21064;-80
2020/12/01 22:09:55;;;;;;;68.28;26.27;;;;;;;-0.73;100.00;101470.66;10737372;82;21592;-78
2020/12/01 22:25:24;;;;;;;59.55;27.07;;;;;;;-0.76;100.00;101484.07;10743920;82;21064;-79
2020/12/01 22:40:28;;;;;;;56.85;24.50;;;;;;;-0.92;100.00;101486.96;10846291;82;21103;-80
2020/12/01 22:55:48;;;;;;;67.37;28.10;;;;;;;-1.06;100.00;101486.39;10855232;82;21087;-79
2020/12/01 23:10:58;;;;;;;68.50;28.92;;;;;;;-1.10;100.00;101495.07;10849134;82;21016;-80
2020/12/01 23:26:10;;;;;;;58.05;25.15;;;;;;;-1.24;100.00;101501.77;10837992;81;21468;-79
2020/12/01 23:41:21;;;;;;;51.45;24.45;;;;;;;-1.29;100.00;101493.28;10469887;84;21100;-80
2020/12/01 23:56:25;;;;;;;53.42;22.27;;;;;;;-1.37;100.00;101498.59;10649555;82;21608;-80
